Mohave Valley, AZ (86440)

5:02 PM MST on August 27, 2014 (GMT -0700)
Mesquite Creek | Change Station
CLOSE
Current Station
Personal Weather Station
Location: Mohave Valley, AZ
Elevation: 581 ft
Nearby Weather Stations

Elev 581 ft 34.97 °N, 114.57 °W | Updated 3 minutes ago

Clear
Clear
106.9 °F
Feels Like 104 °F
N
4.7
Wind Variable Wind from West

Today
High -- | Low -- °F
--% Chance of Precip.
Yesterday
High -- | Low -- °F
Precip. -- in
6:07 AM 7:11 PM
Waxing Crescent, 5% visible
Pressure 29.78 in
Visibility 10.0 miles
Clouds Clear
Heat Index 104 °F
Dew Point 49 °F
Humidity 15%
Rainfall 0.00 in
Snow Depth Not available.
UV 2 out of 12
Pollen 6.70 out of 12
Air Quality Not available.
Flu Activity Not available.
METAR KEED 272356Z AUTO 11009KT 10SM CLR 40/06 A2988 RMK AO2 SLP082 T04000056 10406 20344 56023

More Conditions Fewer Conditions

Pressure 29.78 in
Visibility 10.0 miles
Clouds Clear
Heat Index 104 °F
Dew Point 49 °F
Humidity 15%
Rainfall 0.00 in
Snow Depth Not available.
UV 2 out of 12
Pollen 6.70 out of 12
Air Quality Not available.
Flu Activity Not available.
METAR KEED 272356Z AUTO 11009KT 10SM CLR 40/06 A2988 RMK AO2 SLP082 T04000056 10406 20344 56023

More Conditions Fewer Conditions

10-Day Weather Forecast

Almanac

Astronomy

Aug. 27, 2014 Rise Set
Actual Time 6:07 AM MST 7:11 PM MST
Civil Twilight 5:41 AM MST 7:37 PM MST
Nautical Twilight 5:10 AM MST 8:08 PM MST
Astronomical Twilight 4:38 AM MST 8:40 PM MST
Moon 8:00 AM MST (8/27) 8:13 PM MST (8/27)
Length of Visible Light 13h 56m
Length of Day
13h 03m
Tomorrow will be 2m 3s shorter.
Waxing Crescent, 5% of the Moon is Illuminated
Today
Waxing Crescent
Sep 2
First Quarter
Sep 8
Full
Sep 15
Last Quarter
Sep 24
New

Today's Extremes

State Highs State Lows

Community

WunderPhotos

Upload Photos

1,747,826 photos uploaded!

Nearby

Snow Depth

Station Depth Elevation
White Horse Lake 0 in 7180 ft
Snowslide Canyon 1 in 9730 ft
Heber 0 in 7640 ft
Workman Creek 0 in 6900 ft
Beaver Head 15 in 7990 ft

Earthquake Activity

City Distance Mag. Time & Date
No recent earthquake activity has been reported nearby.
Minimum magnitude displayed is 2.5.

Coastal Water Temperatures

Place Temperature
No Stations Reporting

Nearby Weather Stations